Time;durP1;ratioP1;P1;durP2;ratioP2;P2;SDS_P1;SDS_P2;PMS_P1;PMS_P2;Temp;Humidity;BMP_temperature;BMP_pressure;BME280_temperature;BME280_humidity;BME280_pressure;Samples;Min_cycle;Max_cycle;Signal;HPM_P1;HPM_P2
2021/08/25 00:01:01;;;;;;;3.28;0.50;;;17.40;88.40;;;;;;5071302;28;20028;-71
2021/08/25 00:03:27;;;;;;;1.00;0.40;;;17.40;87.60;;;;;;5071532;28;20407;-70
2021/08/25 00:05:53;;;;;;;3.90;0.40;;;17.40;87.70;;;;;;5071396;28;20021;-70
2021/08/25 00:08:20;;;;;;;3.50;0.60;;;17.40;87.80;;;;;;5071144;28;20404;-71
2021/08/25 00:10:46;;;;;;;0.60;0.30;;;17.40;88.50;;;;;;5071235;28;20090;-71
2021/08/25 00:13:12;;;;;;;3.13;0.40;;;17.40;88.00;;;;;;5071196;28;20115;-71
2021/08/25 00:15:39;;;;;;;1.33;0.43;;;17.40;88.00;;;;;;5071223;28;20027;-70
2021/08/25 00:18:06;;;;;;;1.15;0.40;;;17.40;87.80;;;;;;5071331;28;20488;-70
2021/08/25 00:20:32;;;;;;;1.52;0.40;;;17.40;87.50;;;;;;5070993;28;20053;-70
2021/08/25 00:22:58;;;;;;;0.95;0.20;;;17.40;88.30;;;;;;5071036;28;20523;-70
2021/08/25 00:25:24;;;;;;;0.70;0.40;;;17.40;88.60;;;;;;5071194;28;20056;-70
2021/08/25 00:27:51;;;;;;;3.28;0.40;;;17.40;88.10;;;;;;5070954;28;20105;-69
2021/08/25 00:30:16;;;;;;;0.70;0.30;;;17.40;88.40;;;;;;5070968;28;20091;-71
2021/08/25 00:32:42;;;;;;;2.03;0.50;;;17.40;88.30;;;;;;5070880;28;20457;-70
2021/08/25 00:35:08;;;;;;;1.42;0.43;;;17.40;88.00;;;;;;5070805;28;20552;-70
2021/08/25 00:37:34;;;;;;;6.95;0.63;;;17.40;86.80;;;;;;5071003;28;20032;-70
2021/08/25 00:39:59;;;;;;;1.38;0.50;;;17.40;86.60;;;;;;5070852;28;20767;-70
2021/08/25 00:42:26;;;;;;;1.70;0.60;;;17.40;84.40;;;;;;5070583;28;20052;-70
2021/08/25 00:44:52;;;;;;;1.98;0.60;;;17.40;84.60;;;;;;5070569;28;20020;-70
2021/08/25 00:47:18;;;;;;;1.63;0.50;;;17.40;85.80;;;;;;5070618;28;20040;-71
2021/08/25 00:49:45;;;;;;;1.15;0.50;;;17.40;86.50;;;;;;5052557;28;20033;-71
2021/08/25 00:52:11;;;;;;;2.10;0.80;;;17.30;85.70;;;;;;5070375;28;20104;-69
2021/08/25 00:54:36;;;;;;;1.50;0.63;;;17.30;84.00;;;;;;5070500;28;20025;-70
2021/08/25 00:57:03;;;;;;;1.75;0.70;;;17.30;82.70;;;;;;5052352;28;20035;-70
2021/08/25 00:59:31;;;;;;;1.38;0.75;;;17.20;81.80;;;;;;5070478;28;20489;-70
2021/08/25 01:01:59;;;;;;;1.50;0.57;;;17.20;81.20;;;;;;5070559;28;20044;-70
2021/08/25 01:04:39;;;;;;;1.98;0.73;;;17.20;81.20;;;;;;5070402;28;20024;-70
2021/08/25 01:07:05;;;;;;;4.53;0.80;;;17.30;81.00;;;;;;5070045;28;20028;-70
2021/08/25 01:09:31;;;;;;;2.67;0.82;;;17.20;80.80;;;;;;5069650;28;20028;-70
2021/08/25 01:12:00;;;;;;;2.60;0.80;;;17.30;81.10;;;;;;5070345;28;20530;-71
2021/08/25 01:14:27;;;;;;;1.60;0.70;;;17.20;81.40;;;;;;5070146;28;20035;-71
2021/08/25 01:16:53;;;;;;;2.00;0.80;;;17.20;81.80;;;;;;5069993;28;20021;-70
2021/08/25 01:19:20;;;;;;;2.65;1.05;;;17.10;82.60;;;;;;5069743;28;20048;-70
2021/08/25 01:21:47;;;;;;;1.55;0.68;;;17.10;82.80;;;;;;5070006;28;20029;-70
2021/08/25 01:24:14;;;;;;;1.88;0.80;;;17.10;82.30;;;;;;5070062;28;20040;-69
2021/08/25 01:26:41;;;;;;;1.63;0.70;;;17.10;82.20;;;;;;5070008;28;20056;-70
2021/08/25 01:29:41;;;;;;;3.67;0.98;;;17.10;82.30;;;;;;5069914;28;20044;-68
2021/08/25 01:32:06;;;;;;;2.10;0.70;;;17.00;82.40;;;;;;5025945;28;20217;-71
2021/08/25 01:34:48;;;;;;;1.40;0.70;;;17.00;82.70;;;;;;5070015;28;20498;-71
2021/08/25 01:37:14;;;;;;;3.10;0.95;;;17.00;82.60;;;;;;5052211;28;20051;-71
2021/08/25 01:39:39;;;;;;;1.50;0.77;;;16.90;82.40;;;;;;5070072;28;20470;-71
2021/08/25 01:42:05;;;;;;;2.78;1.25;;;16.90;82.60;;;;;;5069843;28;20029;-71
2021/08/25 01:44:31;;;;;;;1.67;0.70;;;16.90;82.80;;;;;;5070707;28;20471;-71
2021/08/25 01:46:56;;;;;;;2.20;0.70;;;16.90;82.70;;;;;;5069720;28;20035;-71
2021/08/25 01:49:22;;;;;;;2.45;0.90;;;16.90;81.60;;;;;;5069842;28;20029;-71
2021/08/25 01:51:48;;;;;;;2.45;1.02;;;16.90;80.90;;;;;;5069418;28;20029;-70
2021/08/25 01:54:13;;;;;;;1.65;0.75;;;16.90;81.00;;;;;;5069385;28;20021;-70
2021/08/25 01:56:40;;;;;;;1.85;0.98;;;16.80;80.20;;;;;;5069397;28;20033;-72
2021/08/25 01:59:07;;;;;;;4.93;1.00;;;16.90;79.80;;;;;;5069226;28;20032;-71
2021/08/25 02:01:32;;;;;;;2.78;1.02;;;16.80;79.80;;;;;;5050660;28;20442;-70
2021/08/25 02:03:58;;;;;;;2.08;0.80;;;16.80;79.80;;;;;;5069151;28;20028;-70
2021/08/25 02:06:25;;;;;;;2.55;0.80;;;16.80;80.50;;;;;;5069256;28;20032;-71
2021/08/25 02:08:51;;;;;;;2.15;0.90;;;16.80;81.00;;;;;;5068831;28;20507;-70
2021/08/25 02:11:17;;;;;;;1.83;0.70;;;16.80;81.70;;;;;;5069122;28;20028;-68
2021/08/25 02:13:42;;;;;;;2.50;0.90;;;16.90;82.00;;;;;;5068922;28;20024;-67
2021/08/25 02:16:08;;;;;;;2.40;0.80;;;16.80;81.80;;;;;;5068255;28;20033;-67
2021/08/25 02:18:34;;;;;;;1.85;0.70;;;16.80;82.10;;;;;;5068484;28;20103;-67
2021/08/25 02:21:00;;;;;;;;;;;16.80;82.40;;;;;;5068758;28;20087;-69
2021/08/25 02:23:25;;;;;;;2.08;0.85;;;16.70;83.80;;;;;;5050648;28;19999;-68
2021/08/25 02:25:51;;;;;;;5.20;0.90;;;16.70;83.80;;;;;;5050988;28;20119;-68
2021/08/25 02:28:16;;;;;;;2.55;0.85;;;16.70;84.10;;;;;;5068429;28;20117;-68
2021/08/25 02:30:42;;;;;;;2.53;0.95;;;16.70;85.10;;;;;;5068258;28;20059;-68
2021/08/25 02:33:08;;;;;;;1.52;0.63;;;16.70;86.80;;;;;;5049816;28;20020;-68
2021/08/25 02:35:33;;;;;;;2.53;0.77;;;16.60;89.60;;;;;;5067576;28;20409;-70
2021/08/25 02:37:59;;;;;;;;;;;16.60;90.70;;;;;;5068015;28;20310;-70
2021/08/25 02:40:25;;;;;;;5.38;0.68;;;16.50;91.40;;;;;;5068358;28;19912;-69
2021/08/25 02:42:51;;;;;;;1.45;0.60;;;16.50;91.80;;;;;;5068243;28;20040;-69
2021/08/25 02:45:16;;;;;;;1.55;0.47;;;16.40;92.10;;;;;;5050658;28;20534;-70
2021/08/25 02:47:42;;;;;;;2.70;0.60;;;16.40;92.30;;;;;;5068233;28;20032;-69
2021/08/25 02:50:08;;;;;;;4.53;0.73;;;16.40;92.70;;;;;;5068193;28;20445;-70
2021/08/25 02:52:34;;;;;;;4.10;0.80;;;16.40;92.90;;;;;;5068433;28;20039;-70
2021/08/25 02:55:00;;;;;;;1.92;0.57;;;16.30;93.00;;;;;;5068024;28;20053;-70
2021/08/25 02:57:26;;;;;;;1.58;0.60;;;16.30;93.20;;;;;;5067905;28;20028;-70
2021/08/25 02:59:52;;;;;;;1.55;0.70;;;16.20;93.30;;;;;;5067952;28;20019;-70
2021/08/25 03:02:17;;;;;;;2.15;0.70;;;16.20;93.50;;;;;;5050170;28;20040;-69
2021/08/25 03:04:43;;;;;;;2.80;0.70;;;16.20;93.80;;;;;;5050378;28;20058;-69
2021/08/25 03:07:09;;;;;;;1.90;0.57;;;16.20;93.70;;;;;;5068197;28;20032;-70
2021/08/25 03:09:34;;;;;;;2.55;0.63;;;16.20;93.80;;;;;;5068178;28;20032;-70
2021/08/25 03:12:00;;;;;;;2.20;0.82;;;16.20;94.10;;;;;;5068477;28;20499;-69
2021/08/25 03:14:26;;;;;;;1.77;0.77;;;16.20;94.00;;;;;;5072364;28;20021;-70
2021/08/25 03:16:51;;;;;;;0.95;0.52;;;16.20;94.00;;;;;;5072360;28;20441;-69
2021/08/25 03:19:17;;;;;;;;;;;16.20;94.00;;;;;;5072580;28;20045;-70
2021/08/25 03:21:42;;;;;;;1.73;0.70;;;16.20;94.10;;;;;;5072264;28;19917;-69
2021/08/25 03:24:09;;;;;;;1.23;0.68;;;16.20;94.30;;;;;;5072094;28;20027;-69
2021/08/25 03:26:34;;;;;;;1.33;0.70;;;16.20;94.50;;;;;;5054134;28;20099;-70
2021/08/25 03:29:00;;;;;;;3.70;0.60;;;16.10;94.60;;;;;;5054063;28;20547;-69
2021/08/25 03:31:26;;;;;;;;;;;16.10;94.90;;;;;;5072322;28;20024;-70
2021/08/25 03:33:51;;;;;;;1.52;0.75;;;16.00;95.00;;;;;;5072211;28;20376;-70
2021/08/25 03:36:17;;;;;;;;;;;16.00;95.10;;;;;;5072322;28;20029;-70
2021/08/25 03:38:43;;;;;;;1.98;0.70;;;15.90;95.30;;;;;;5071795;28;19932;-70
2021/08/25 03:41:08;;;;;;;;;;;15.90;95.60;;;;;;5072205;28;20550;-69
2021/08/25 03:43:34;;;;;;;2.03;1.03;;;15.90;95.90;;;;;;5053930;28;19954;-70
2021/08/25 03:46:00;;;;;;;2.78;1.08;;;15.90;95.70;;;;;;5071709;28;20573;-70
2021/08/25 03:48:25;;;;;;;2.05;0.60;;;15.90;95.80;;;;;;5071670;28;20535;-70
2021/08/25 03:50:51;;;;;;;4.10;0.90;;;16.00;95.80;;;;;;5071447;28;20547;-69
2021/08/25 03:53:17;;;;;;;2.83;0.90;;;15.90;95.10;;;;;;5071591;28;20033;-70
2021/08/25 03:55:42;;;;;;;1.50;1.00;;;15.90;94.90;;;;;;5071624;28;20043;-70
2021/08/25 03:58:08;;;;;;;;;;;15.90;94.80;;;;;;5071871;28;20024;-70
2021/08/25 04:00:33;;;;;;;3.42;1.13;;;15.90;94.70;;;;;;5071516;28;19926;-70
2021/08/25 04:02:59;;;;;;;2.85;1.00;;;15.90;94.50;;;;;;5071296;28;20542;-69
2021/08/25 04:05:25;;;;;;;2.47;0.98;;;15.90;94.20;;;;;;5071429;28;20032;-69
2021/08/25 04:07:50;;;;;;;;;;;16.00;94.20;;;;;;5071612;28;20029;-69
2021/08/25 04:10:16;;;;;;;4.57;1.10;;;15.90;93.90;;;;;;5071285;28;19995;-69
2021/08/25 04:12:41;;;;;;;;;;;15.90;93.80;;;;;;5071681;28;20078;-69
2021/08/25 04:15:08;;;;;;;1.90;0.88;;;15.90;94.20;;;;;;5071324;28;19918;-69
2021/08/25 04:17:33;;;;;;;3.33;0.70;;;15.90;94.60;;;;;;5053317;28;20128;-69
2021/08/25 04:19:59;;;;;;;5.05;1.30;;;15.90;95.00;;;;;;5071103;28;20147;-69
2021/08/25 04:22:24;;;;;;;2.55;0.85;;;15.90;95.00;;;;;;5071055;28;20075;-70
2021/08/25 04:24:50;;;;;;;3.08;0.80;;;15.90;95.10;;;;;;5070574;28;20036;-69
2021/08/25 04:27:16;;;;;;;;;;;16.10;95.20;;;;;;5071548;28;20122;-69
2021/08/25 04:29:41;;;;;;;3.80;0.95;;;16.10;94.60;;;;;;5071253;28;19908;-69
2021/08/25 04:32:07;;;;;;;3.38;1.10;;;16.10;94.60;;;;;;5071172;28;20040;-69
2021/08/25 04:34:33;;;;;;;2.20;0.60;;;16.10;94.80;;;;;;5071170;28;20031;-69
2021/08/25 04:36:59;;;;;;;3.88;1.25;;;16.20;95.00;;;;;;5070943;28;20024;-69
2021/08/25 04:39:24;;;;;;;4.35;0.80;;;16.20;94.90;;;;;;5070835;28;20035;-70
2021/08/25 04:41:50;;;;;;;1.90;0.88;;;16.30;95.00;;;;;;5052979;28;20037;-70
2021/08/25 04:44:15;;;;;;;2.25;0.95;;;16.30;95.10;;;;;;5070950;28;20531;-70
2021/08/25 04:46:41;;;;;;;1.42;1.00;;;16.30;95.20;;;;;;5070827;28;20408;-70
2021/08/25 04:49:07;;;;;;;;;;;16.40;95.30;;;;;;5070990;28;20064;-70
2021/08/25 04:51:32;;;;;;;2.35;0.98;;;16.40;95.60;;;;;;5070587;28;19970;-70
2021/08/25 04:53:58;;;;;;;5.28;0.85;;;16.40;95.50;;;;;;5052822;28;20755;-69
2021/08/25 04:56:23;;;;;;;3.03;1.27;;;16.50;95.40;;;;;;5070671;28;20444;-69
2021/08/25 04:58:49;;;;;;;3.10;1.10;;;16.60;95.10;;;;;;5070876;28;20032;-69
2021/08/25 05:01:15;;;;;;;2.25;0.73;;;16.70;94.70;;;;;;5070508;28;20437;-70
2021/08/25 05:03:40;;;;;;;2.72;1.02;;;16.80;94.40;;;;;;5070548;28;20056;-70
2021/08/25 05:06:10;;;;;;;1.40;0.60;;;16.90;94.30;;;;;;5070413;28;20027;-69
2021/08/25 05:08:37;;;;;;;3.97;0.95;;;17.10;93.50;;;;;;5052390;28;20032;-70
2021/08/25 05:11:03;;;;;;;1.52;0.75;;;17.40;92.80;;;;;;5070196;28;20024;-69
2021/08/25 05:13:29;;;;;;;5.68;0.77;;;17.50;92.40;;;;;;5070319;28;20032;-70
2021/08/25 05:15:55;;;;;;;5.32;0.75;;;17.70;91.90;;;;;;5070376;28;20067;-70
2021/08/25 05:18:20;;;;;;;4.78;0.90;;;17.90;90.80;;;;;;5070126;28;20056;-70
2021/08/25 05:20:46;;;;;;;1.75;0.60;;;18.10;90.60;;;;;;5069938;28;20143;-69
2021/08/25 05:23:12;;;;;;;1.75;0.90;;;18.10;90.30;;;;;;5069971;28;20531;-70
2021/08/25 05:25:37;;;;;;;6.10;0.88;;;18.10;90.20;;;;;;5051971;28;20097;-70
2021/08/25 05:28:03;;;;;;;4.43;0.80;;;18.30;90.00;;;;;;5070078;28;20149;-69
2021/08/25 05:30:29;;;;;;;2.55;0.80;;;18.50;89.80;;;;;;5051871;28;20051;-70
2021/08/25 05:32:55;;;;;;;3.70;0.55;;;18.80;89.00;;;;;;5069551;28;20480;-70
2021/08/25 05:35:22;;;;;;;4.28;0.90;;;19.40;84.80;;;;;;5068961;28;20480;-70
2021/08/25 05:37:49;;;;;;;2.15;0.88;;;19.70;84.00;;;;;;5069791;28;20089;-70
2021/08/25 05:40:15;;;;;;;1.88;0.65;;;20.00;81.60;;;;;;5051857;28;20512;-70
2021/08/25 05:42:42;;;;;;;7.90;0.77;;;20.30;80.90;;;;;;5069487;28;20105;-70
2021/08/25 05:45:09;;;;;;;4.20;1.15;;;20.30;80.30;;;;;;5069561;28;20116;-70
2021/08/25 05:47:36;;;;;;;2.05;1.08;;;20.60;79.50;;;;;;5069293;28;20025;-70
2021/08/25 05:50:02;;;;;;;4.25;1.67;;;20.80;77.30;;;;;;5069439;28;20108;-70
2021/08/25 05:52:28;;;;;;;2.17;0.80;;;20.90;75.20;;;;;;5069896;28;20075;-70
2021/08/25 05:54:53;;;;;;;1.52;0.90;;;21.10;75.10;;;;;;5069383;28;20464;-70
2021/08/25 05:57:19;;;;;;;6.60;1.20;;;21.40;73.80;;;;;;5069301;28;20085;-69
2021/08/25 05:59:45;;;;;;;1.40;0.80;;;21.80;71.50;;;;;;5069437;28;20028;-70
2021/08/25 06:02:10;;;;;;;9.57;2.40;;;22.10;68.90;;;;;;5069159;28;20051;-71
2021/08/25 06:04:36;;;;;;;1.90;1.17;;;22.50;66.80;;;;;;5069313;28;20055;-71
2021/08/25 06:07:02;;;;;;;2.42;1.63;;;22.90;63.80;;;;;;5068847;28;20028;-71
2021/08/25 06:09:27;;;;;;;2.63;1.58;;;23.30;57.80;;;;;;5069074;28;20025;-71
2021/08/25 06:11:53;;;;;;;3.45;1.80;;;23.60;56.10;;;;;;5069037;28;20544;-68
2021/08/25 06:14:18;;;;;;;3.17;1.77;;;24.00;54.90;;;;;;5068899;28;20024;-69
2021/08/25 06:16:44;;;;;;;4.30;1.92;;;24.40;52.50;;;;;;5068922;28;20029;-69
2021/08/25 06:19:10;;;;;;;4.57;2.00;;;24.80;50.60;;;;;;5068639;28;20765;-69
2021/08/25 06:21:36;;;;;;;4.50;1.95;;;25.10;49.60;;;;;;5050804;28;20075;-69
2021/08/25 06:24:02;;;;;;;3.50;1.65;;;25.30;48.80;;;;;;5068770;28;20056;-69
2021/08/25 06:26:30;;;;;;;2.83;1.92;;;25.60;46.40;;;;;;5069088;28;20389;-69
2021/08/25 06:28:55;;;;;;;3.28;1.50;;;25.80;45.00;;;;;;5068704;28;20040;-69
2021/08/25 06:31:21;;;;;;;5.97;1.70;;;25.90;44.90;;;;;;5068527;28;20028;-69
2021/08/25 06:33:47;;;;;;;3.30;1.75;;;26.30;44.00;;;;;;5068755;28;20028;-70
2021/08/25 06:36:13;;;;;;;2.67;1.10;;;26.60;44.00;;;;;;5068643;28;20021;-69
2021/08/25 06:38:38;;;;;;;5.82;1.55;;;26.80;43.90;;;;;;5068834;28;20048;-69
2021/08/25 06:41:04;;;;;;;2.53;1.35;;;26.70;44.50;;;;;;5068437;28;20036;-69
2021/08/25 06:43:30;;;;;;;2.22;1.10;;;26.80;44.30;;;;;;5068604;28;20040;-69
2021/08/25 06:45:56;;;;;;;2.75;1.58;;;26.70;43.80;;;;;;5068497;28;20031;-69
2021/08/25 06:48:22;;;;;;;4.30;1.67;;;26.70;43.60;;;;;;5068322;28;20037;-69
2021/08/25 06:50:48;;;;;;;1.90;1.15;;;26.60;43.60;;;;;;5050765;28;20056;-69
2021/08/25 06:53:13;;;;;;;4.93;1.33;;;27.00;43.90;;;;;;5068451;28;20096;-69
2021/08/25 06:55:39;;;;;;;2.72;1.55;;;27.10;43.40;;;;;;5068386;28;20389;-69
2021/08/25 06:58:05;;;;;;;2.90;1.67;;;26.90;43.90;;;;;;5050357;28;20477;-68
2021/08/25 07:00:30;;;;;;;3.78;2.17;;;27.20;42.70;;;;;;5068567;28;20068;-69
2021/08/25 07:02:56;;;;;;;3.97;1.73;;;27.40;41.50;;;;;;5068218;28;20531;-69
2021/08/25 07:05:21;;;;;;;7.28;1.67;;;27.60;40.70;;;;;;5068335;28;20024;-68
2021/08/25 07:07:47;;;;;;;3.72;1.80;;;27.10;39.90;;;;;;5068360;28;20032;-69
2021/08/25 07:10:13;;;;;;;3.38;1.92;;;27.50;40.70;;;;;;5068265;28;20024;-69
2021/08/25 07:12:38;;;;;;;7.18;2.17;;;27.40;38.80;;;;;;5068560;28;20043;-69
2021/08/25 07:15:05;;;;;;;3.38;2.30;;;27.80;38.90;;;;;;5068168;28;20116;-69
2021/08/25 07:17:31;;;;;;;4.32;2.50;;;28.20;37.80;;;;;;5068037;28;20021;-69
2021/08/25 07:19:57;;;;;;;5.13;1.90;;;28.30;37.60;;;;;;5050129;28;20109;-68
2021/08/25 07:22:23;;;;;;;6.70;1.80;;;28.50;37.30;;;;;;5050274;28;20132;-69
2021/08/25 07:24:49;;;;;;;3.88;2.10;;;28.80;37.90;;;;;;5068242;28;20099;-69
2021/08/25 07:27:14;;;;;;;4.18;2.30;;;29.00;36.40;;;;;;5050381;28;20097;-69
2021/08/25 07:29:40;;;;;;;2.75;1.95;;;28.90;36.20;;;;;;5068145;28;20021;-69
2021/08/25 07:32:06;;;;;;;4.13;1.83;;;29.30;36.90;;;;;;5068027;28;20036;-68
2021/08/25 07:34:32;;;;;;;3.13;1.50;;;29.60;37.30;;;;;;5068114;28;20420;-69
2021/08/25 07:36:57;;;;;;;2.88;1.40;;;29.90;37.20;;;;;;5067959;28;20028;-68
2021/08/25 07:39:23;;;;;;;3.38;1.60;;;30.00;36.40;;;;;;5067971;28;20393;-69
2021/08/25 07:41:49;;;;;;;8.60;1.77;;;30.10;36.90;;;;;;5068198;28;20460;-69
2021/08/25 07:44:14;;;;;;;3.05;1.73;;;30.20;36.60;;;;;;5068094;28;20021;-69
2021/08/25 07:46:40;;;;;;;3.47;1.98;;;30.10;36.70;;;;;;5049789;28;20025;-69
2021/08/25 07:49:06;;;;;;;3.22;1.48;;;30.20;36.70;;;;;;5068315;28;20063;-69
2021/08/25 07:51:34;;;;;;;2.53;1.40;;;30.80;35.30;;;;;;5049611;28;20477;-69
2021/08/25 07:54:00;;;;;;;2.80;1.30;;;30.90;34.30;;;;;;5067754;28;20052;-69
2021/08/25 07:56:26;;;;;;;4.25;1.90;;;31.10;34.40;;;;;;5067807;28;20027;-69
2021/08/25 07:58:52;;;;;;;2.92;1.30;;;31.60;33.40;;;;;;5069379;28;20028;-69
2021/08/25 08:01:17;;;;;;;3.75;1.52;;;31.60;32.50;;;;;;5071445;28;20028;-68
2021/08/25 08:03:43;;;;;;;2.13;1.60;;;31.30;32.70;;;;;;5071569;28;20111;-69
2021/08/25 08:06:09;;;;;;;4.85;1.55;;;31.30;32.60;;;;;;5071440;28;20028;-69
2021/08/25 08:08:34;;;;;;;2.92;1.42;;;30.50;34.40;;;;;;5071514;28;20063;-71
2021/08/25 08:11:00;;;;;;;5.78;1.73;;;30.40;34.20;;;;;;5071562;28;20368;-69
2021/08/25 08:13:25;;;;;;;3.88;1.80;;;30.70;34.30;;;;;;5071422;28;20051;-69
2021/08/25 08:15:51;;;;;;;3.67;1.80;;;31.40;33.10;;;;;;5071380;28;20047;-69
2021/08/25 08:18:27;;;;;;;5.00;1.90;;;31.90;33.00;;;;;;5071074;28;20857;-70
2021/08/25 08:20:53;;;;;;;3.30;2.00;;;32.20;30.50;;;;;;5070883;28;20090;-68
2021/08/25 08:23:19;;;;;;;4.65;1.65;;;32.00;31.70;;;;;;5071768;28;20576;-69
2021/08/25 08:25:45;;;;;;;3.20;1.60;;;32.20;31.50;;;;;;5071184;28;20087;-70
2021/08/25 08:28:11;;;;;;;4.28;1.92;;;32.30;31.20;;;;;;5071045;28;20033;-69
2021/08/25 08:30:36;;;;;;;2.78;1.70;;;32.10;31.40;;;;;;5070884;28;20024;-69
2021/08/25 08:33:02;;;;;;;2.15;1.42;;;32.20;32.20;;;;;;5070998;28;20535;-69
2021/08/25 08:35:28;;;;;;;4.60;1.77;;;32.30;32.20;;;;;;5070963;28;20124;-69
2021/08/25 08:37:59;;;;;;;2.90;1.83;;;32.00;32.00;;;;;;5070894;28;20033;-69
2021/08/25 08:40:25;;;;;;;3.92;2.15;;;31.90;32.70;;;;;;5070950;28;20355;-69
2021/08/25 08:42:52;;;;;;;2.20;1.60;;;32.70;30.70;;;;;;5070521;28;20489;-70
2021/08/25 08:45:20;;;;;;;3.20;1.70;;;32.30;30.60;;;;;;5071074;28;20032;-68
2021/08/25 08:47:47;;;;;;;5.95;1.98;;;32.30;30.00;;;;;;5070741;28;20032;-69
2021/08/25 08:50:13;;;;;;;4.85;1.67;;;31.70;30.10;;;;;;5070762;28;20082;-69
2021/08/25 08:52:38;;;;;;;3.55;1.75;;;31.20;31.90;;;;;;5070600;28;20460;-69
2021/08/25 08:55:05;;;;;;;5.72;1.83;;;31.20;32.50;;;;;;5070491;28;20054;-69
2021/08/25 08:57:31;;;;;;;7.50;2.20;;;31.40;32.50;;;;;;5070743;28;20107;-69
2021/08/25 08:59:59;;;;;;;5.30;1.80;;;31.60;32.40;;;;;;5052656;28;20147;-68
2021/08/25 09:02:38;;;;;;;3.22;1.50;;;31.90;31.10;;;;;;5052482;28;20067;-69
2021/08/25 09:05:21;;;;;;;4.05;2.05;;;32.30;31.70;;;;;;5052342;28;20051;-69
2021/08/25 09:07:52;;;;;;;6.22;2.13;;;32.50;29.80;;;;;;5070547;28;20500;-69
2021/08/25 09:10:25;;;;;;;2.92;1.80;;;32.50;29.80;;;;;;5068971;28;20029;-69
2021/08/25 09:12:58;;;;;;;3.15;1.90;;;32.20;30.90;;;;;;5070227;28;20118;-68
2021/08/25 09:15:26;;;;;;;2.78;1.80;;;32.00;29.60;;;;;;5070125;28;20036;-69
2021/08/25 09:18:03;;;;;;;6.65;1.80;;;31.80;30.00;;;;;;5070127;28;20491;-69
2021/08/25 09:20:31;;;;;;;4.40;1.60;;;31.80;30.50;;;;;;5070115;28;20110;-69
2021/08/25 09:23:11;;;;;;;4.75;2.15;;;32.00;31.10;;;;;;5069836;28;20512;-69
2021/08/25 09:25:37;;;;;;;7.78;2.20;;;32.20;30.40;;;;;;5070238;28;20040;-69
2021/08/25 09:28:05;;;;;;;3.25;1.80;;;32.40;31.30;;;;;;5070010;28;20078;-69
2021/08/25 09:31:03;;;;;;;3.60;1.80;;;32.40;29.80;;;;;;5070098;28;20059;-69
2021/08/25 09:33:34;;;;;;;6.25;2.53;;;32.70;29.80;;;;;;5069853;28;20036;-69
2021/08/25 09:36:10;;;;;;;7.85;2.33;;;32.60;29.80;;;;;;5069850;28;20029;-69
2021/08/25 09:38:37;;;;;;;4.80;1.90;;;33.00;30.30;;;;;;5070102;28;20040;-69
2021/08/25 09:41:10;;;;;;;8.55;2.05;;;32.90;28.70;;;;;;5069731;28;20455;-69
2021/08/25 09:43:38;;;;;;;6.18;1.90;;;31.90;30.30;;;;;;5069651;28;20036;-69
2021/08/25 09:46:21;;;;;;;5.07;1.30;;;31.30;31.10;;;;;;5051573;28;20024;-69
2021/08/25 09:48:49;;;;;;;5.13;1.90;;;30.80;30.20;;;;;;5069531;28;20023;-68
2021/08/25 09:51:17;;;;;;;4.75;1.75;;;29.80;32.20;;;;;;5069555;28;20032;-68
2021/08/25 09:53:48;;;;;;;3.70;2.25;;;29.20;32.90;;;;;;5069438;28;20067;-68
2021/08/25 09:56:23;;;;;;;2.70;1.83;;;28.50;34.10;;;;;;5069359;28;20035;-70
2021/08/25 09:58:49;;;;;;;3.78;1.88;;;28.10;34.90;;;;;;5069216;28;20040;-70
2021/08/25 10:01:20;;;;;;;3.63;1.85;;;27.90;35.00;;;;;;5051210;28;20394;-69
2021/08/25 10:03:46;;;;;;;7.43;2.30;;;27.60;35.70;;;;;;5051544;28;20032;-70
2021/08/25 10:06:15;;;;;;;3.10;1.60;;;27.40;36.00;;;;;;5069102;28;20033;-70
2021/08/25 10:08:41;;;;;;;4.13;1.60;;;27.00;35.80;;;;;;5069048;28;20027;-70
2021/08/25 10:11:08;;;;;;;3.67;1.63;;;26.50;36.70;;;;;;5069042;28;20024;-70
2021/08/25 10:13:34;;;;;;;3.95;1.60;;;26.30;37.60;;;;;;5069049;28;20025;-70
2021/08/25 10:16:00;;;;;;;8.57;1.77;;;26.10;38.30;;;;;;5069114;28;20029;-70
2021/08/25 10:18:40;;;;;;;4.45;1.88;;;25.90;38.70;;;;;;5069064;28;20016;-70
2021/08/25 10:21:38;;;;;;;3.65;1.70;;;25.70;37.80;;;;;;5068306;28;20052;-70
2021/08/25 10:24:05;;;;;;;2.50;1.65;;;25.50;37.50;;;;;;5068067;28;20106;-69
2021/08/25 10:26:32;;;;;;;4.35;2.10;;;25.10;39.10;;;;;;5069175;28;20055;-70
2021/08/25 10:29:07;;;;;;;6.22;2.05;;;25.00;40.40;;;;;;5068813;28;20086;-70
2021/08/25 10:31:48;;;;;;;7.72;2.50;;;25.10;40.90;;;;;;5068741;28;20021;-69
2021/08/25 10:34:21;;;;;;;6.05;2.55;;;25.20;38.60;;;;;;5068782;28;20059;-70
2021/08/25 10:36:47;;;;;;;5.38;2.20;;;25.00;39.70;;;;;;5068848;28;20032;-69
2021/08/25 10:39:32;;;;;;;6.32;2.05;;;24.70;40.20;;;;;;5068741;28;20078;-70
2021/08/25 10:41:58;;;;;;;5.05;2.25;;;24.70;41.70;;;;;;5068855;28;20039;-70
2021/08/25 10:44:46;;;;;;;5.70;1.60;;;25.00;41.30;;;;;;5069102;28;20025;-70
2021/08/25 10:47:16;;;;;;;3.45;2.00;;;25.00;39.40;;;;;;5068611;28;20024;-70
2021/08/25 10:49:47;;;;;;;5.88;2.08;;;24.60;40.70;;;;;;5068632;28;20039;-70
2021/08/25 10:52:18;;;;;;;4.22;2.20;;;24.50;41.00;;;;;;5068608;28;20763;-70
2021/08/25 10:54:48;;;;;;;6.65;2.25;;;24.40;41.50;;;;;;5068521;28;20032;-70
2021/08/25 10:57:19;;;;;;;3.35;1.90;;;24.30;41.60;;;;;;5068699;28;20605;-70
2021/08/25 10:59:45;;;;;;;4.22;1.88;;;24.20;41.60;;;;;;5050550;28;20039;-70
2021/08/25 11:02:30;;;;;;;2.50;1.48;;;24.30;42.50;;;;;;5068320;28;20078;-70
2021/08/25 11:04:59;;;;;;;7.82;2.05;;;24.50;42.10;;;;;;5068292;28;20024;-70
2021/08/25 11:07:25;;;;;;;5.22;1.83;;;24.40;41.20;;;;;;5068230;28;20036;-70
2021/08/25 11:09:50;;;;;;;7.93;2.15;;;24.40;41.80;;;;;;5068331;28;20016;-69
2021/08/25 11:12:18;;;;;;;3.70;2.03;;;24.40;41.40;;;;;;5068374;28;20039;-70
2021/08/25 11:14:49;;;;;;;3.92;1.70;;;24.30;41.40;;;;;;5068219;28;20061;-70
2021/08/25 11:17:18;;;;;;;6.05;2.10;;;24.20;41.80;;;;;;5050367;28;20032;-70
2021/08/25 11:19:44;;;;;;;6.30;1.90;;;24.40;42.30;;;;;;5068232;28;20044;-70
2021/08/25 11:22:31;;;;;;;6.35;2.13;;;24.60;41.80;;;;;;5050241;28;20044;-70
2021/08/25 11:25:09;;;;;;;4.25;1.80;;;24.70;42.10;;;;;;5067991;28;20109;-70
2021/08/25 11:27:53;;;;;;;2.78;1.80;;;24.90;40.30;;;;;;5050238;28;20515;-70
2021/08/25 11:30:28;;;;;;;6.75;2.30;;;24.60;40.00;;;;;;5068054;28;20388;-70
2021/08/25 11:33:11;;;;;;;6.95;2.55;;;24.50;41.30;;;;;;5050000;28;20036;-70
2021/08/25 11:35:39;;;;;;;13.38;2.40;;;24.30;41.80;;;;;;5072105;28;20025;-70
2021/08/25 11:38:08;;;;;;;4.35;1.60;;;24.20;42.30;;;;;;5071896;28;20059;-69
2021/08/25 11:40:38;;;;;;;2.97;1.65;;;24.40;43.50;;;;;;5072027;28;20016;-70
2021/08/25 11:43:05;;;;;;;3.25;1.80;;;24.50;42.40;;;;;;5071770;28;20036;-70
2021/08/25 11:45:34;;;;;;;3.00;1.40;;;24.60;42.10;;;;;;5071858;28;20119;-70
2021/08/25 11:48:01;;;;;;;5.25;1.50;;;24.70;43.30;;;;;;5053838;28;20056;-69
2021/08/25 11:50:32;;;;;;;2.42;1.58;;;24.70;44.00;;;;;;5071929;28;20565;-70
2021/08/25 11:53:00;;;;;;;3.67;1.75;;;24.90;43.70;;;;;;5071777;28;20031;-70
2021/08/25 11:55:26;;;;;;;6.30;1.67;;;25.20;42.40;;;;;;5071839;28;20036;-70
2021/08/25 11:57:54;;;;;;;6.70;1.58;;;25.20;42.90;;;;;;5071627;28;20028;-70
2021/08/25 12:00:40;;;;;;;4.50;1.92;;;25.20;43.00;;;;;;5071804;28;20111;-70
2021/08/25 12:03:08;;;;;;;3.63;1.40;;;25.20;42.00;;;;;;5071378;28;20111;-70
2021/08/25 12:05:39;;;;;;;3.53;1.45;;;25.10;42.70;;;;;;5071731;28;20103;-69
2021/08/25 12:08:05;;;;;;;5.53;1.63;;;25.00;42.40;;;;;;5053414;28;20025;-68
2021/08/25 12:10:32;;;;;;;5.85;1.55;;;25.00;43.00;;;;;;5071479;28;20031;-70
2021/08/25 12:12:58;;;;;;;5.20;1.92;;;25.10;42.40;;;;;;5071407;28;20043;-70
2021/08/25 12:15:46;;;;;;;3.05;1.77;;;24.70;41.00;;;;;;5071554;28;20062;-70
2021/08/25 12:18:13;;;;;;;3.63;1.63;;;25.00;40.70;;;;;;5071492;28;20036;-70
2021/08/25 12:20:42;;;;;;;5.22;1.65;;;25.00;41.10;;;;;;5071105;28;20061;-70
2021/08/25 12:23:10;;;;;;;2.92;1.60;;;24.90;42.40;;;;;;5071090;28;20086;-70
2021/08/25 12:25:43;;;;;;;3.08;1.48;;;24.90;43.00;;;;;;5071277;28;20456;-70
2021/08/25 12:28:10;;;;;;;2.78;1.25;;;25.10;42.80;;;;;;5071228;28;20111;-69
2021/08/25 12:30:37;;;;;;;10.65;1.30;;;25.10;42.90;;;;;;5071128;28;20021;-70
2021/08/25 12:33:08;;;;;;;1.98;1.00;;;25.20;44.40;;;;;;5070943;28;20048;-70
2021/08/25 12:35:35;;;;;;;3.63;1.33;;;25.00;44.00;;;;;;5071132;28;20035;-70
2021/08/25 12:38:02;;;;;;;4.15;1.60;;;25.00;44.30;;;;;;5053242;28;20056;-70
2021/08/25 12:40:29;;;;;;;2.65;1.10;;;24.90;44.00;;;;;;5071045;28;20027;-70
2021/08/25 12:42:56;;;;;;;3.05;1.90;;;25.00;44.40;;;;;;5070565;28;20040;-69
2021/08/25 12:45:22;;;;;;;2.72;1.15;;;25.00;42.70;;;;;;5070565;28;20392;-71
2021/08/25 12:47:50;;;;;;;3.88;1.50;;;24.80;42.60;;;;;;5070925;28;20036;-70
2021/08/25 12:50:17;;;;;;;6.35;1.10;;;24.70;43.90;;;;;;5070763;28;20020;-70
2021/08/25 12:52:43;;;;;;;4.13;1.48;;;24.50;44.50;;;;;;5070607;28;20035;-70